sensor_id;sensor_type;location;lat;lon;timestamp;temperature;humidity
34572;DHT22;20808;48.974;8.452;2022-07-23T00:00:06;24.80;1.00
34572;DHT22;20808;48.974;8.452;2022-07-23T00:02:34;24.70;1.00
34572;DHT22;20808;48.974;8.452;2022-07-23T00:05:01;24.60;1.00
34572;DHT22;20808;48.974;8.452;2022-07-23T00:07:27;24.60;1.00
34572;DHT22;20808;48.974;8.452;2022-07-23T00:09:56;24.60;1.00
34572;DHT22;20808;48.974;8.452;2022-07-23T00:12:23;24.60;1.00
34572;DHT22;20808;48.974;8.452;2022-07-23T00:14:49;24.60;1.00
34572;DHT22;20808;48.974;8.452;2022-07-23T00:17:16;24.60;1.00
34572;DHT22;20808;48.974;8.452;2022-07-23T00:19:43;24.60;1.00
34572;DHT22;20808;48.974;8.452;2022-07-23T00:22:10;24.60;1.00
34572;DHT22;20808;48.974;8.452;2022-07-23T00:24:37;24.50;1.00
34572;DHT22;20808;48.974;8.452;2022-07-23T00:27:05;24.50;1.00
34572;DHT22;20808;48.974;8.452;2022-07-23T00:29:32;24.50;1.00
34572;DHT22;20808;48.974;8.452;2022-07-23T00:31:59;24.40;1.00
34572;DHT22;20808;48.974;8.452;2022-07-23T00:34:25;24.30;1.00
34572;DHT22;20808;48.974;8.452;2022-07-23T00:36:52;24.10;1.00
34572;DHT22;20808;48.974;8.452;2022-07-23T00:39:19;24.10;1.00
34572;DHT22;20808;48.974;8.452;2022-07-23T00:41:47;24.00;1.00
34572;DHT22;20808;48.974;8.452;2022-07-23T00:44:17;23.90;1.00
34572;DHT22;20808;48.974;8.452;2022-07-23T00:46:50;23.90;1.00
34572;DHT22;20808;48.974;8.452;2022-07-23T00:49:18;23.90;1.00
34572;DHT22;20808;48.974;8.452;2022-07-23T00:51:46;23.90;1.00
34572;DHT22;20808;48.974;8.452;2022-07-23T00:54:14;23.90;1.00
34572;DHT22;20808;48.974;8.452;2022-07-23T00:56:43;23.80;1.00
34572;DHT22;20808;48.974;8.452;2022-07-23T00:59:10;23.80;1.00
34572;DHT22;20808;48.974;8.452;2022-07-23T01:01:39;23.80;1.00
34572;DHT22;20808;48.974;8.452;2022-07-23T01:04:06;23.80;1.00
34572;DHT22;20808;48.974;8.452;2022-07-23T01:06:35;23.70;1.00
34572;DHT22;20808;48.974;8.452;2022-07-23T01:09:03;23.60;1.00
34572;DHT22;20808;48.974;8.452;2022-07-23T01:11:33;23.50;1.00
34572;DHT22;20808;48.974;8.452;2022-07-23T01:14:08;23.40;1.00
34572;DHT22;20808;48.974;8.452;2022-07-23T01:16:34;23.20;1.00
34572;DHT22;20808;48.974;8.452;2022-07-23T01:19:03;23.00;1.00
34572;DHT22;20808;48.974;8.452;2022-07-23T01:21:34;22.90;1.00
34572;DHT22;20808;48.974;8.452;2022-07-23T01:24:04;22.90;1.00
34572;DHT22;20808;48.974;8.452;2022-07-23T01:26:31;22.80;1.00
34572;DHT22;20808;48.974;8.452;2022-07-23T01:28:58;22.60;1.00
34572;DHT22;20808;48.974;8.452;2022-07-23T01:31:24;22.60;1.00
34572;DHT22;20808;48.974;8.452;2022-07-23T01:33:51;22.60;1.00
34572;DHT22;20808;48.974;8.452;2022-07-23T01:36:18;22.60;1.00
34572;DHT22;20808;48.974;8.452;2022-07-23T01:38:45;22.50;1.00
34572;DHT22;20808;48.974;8.452;2022-07-23T01:41:13;22.40;1.00
34572;DHT22;20808;48.974;8.452;2022-07-23T01:43:40;22.40;1.00
34572;DHT22;20808;48.974;8.452;2022-07-23T01:46:07;22.30;1.00
34572;DHT22;20808;48.974;8.452;2022-07-23T01:48:34;22.20;1.00
34572;DHT22;20808;48.974;8.452;2022-07-23T01:51:01;22.20;1.00
34572;DHT22;20808;48.974;8.452;2022-07-23T01:53:28;22.10;1.00
34572;DHT22;20808;48.974;8.452;2022-07-23T01:55:56;22.00;1.00
34572;DHT22;20808;48.974;8.452;2022-07-23T01:58:25;21.80;1.00
34572;DHT22;20808;48.974;8.452;2022-07-23T02:00:52;21.70;1.00
34572;DHT22;20808;48.974;8.452;2022-07-23T02:03:19;21.80;1.00
34572;DHT22;20808;48.974;8.452;2022-07-23T02:05:45;21.60;1.00
34572;DHT22;20808;48.974;8.452;2022-07-23T02:08:12;21.60;1.00
34572;DHT22;20808;48.974;8.452;2022-07-23T02:10:39;21.50;1.00
34572;DHT22;20808;48.974;8.452;2022-07-23T02:13:06;21.50;1.00
34572;DHT22;20808;48.974;8.452;2022-07-23T02:15:34;21.50;1.00
34572;DHT22;20808;48.974;8.452;2022-07-23T02:18:01;21.50;1.00
34572;DHT22;20808;48.974;8.452;2022-07-23T02:20:28;21.50;1.00
34572;DHT22;20808;48.974;8.452;2022-07-23T02:22:55;21.50;1.00
34572;DHT22;20808;48.974;8.452;2022-07-23T02:25:22;21.40;1.00
34572;DHT22;20808;48.974;8.452;2022-07-23T02:27:49;21.50;1.00
34572;DHT22;20808;48.974;8.452;2022-07-23T02:30:15;21.50;1.00
34572;DHT22;20808;48.974;8.452;2022-07-23T02:32:44;21.50;1.00
34572;DHT22;20808;48.974;8.452;2022-07-23T02:35:10;21.50;1.00
34572;DHT22;20808;48.974;8.452;2022-07-23T02:37:37;21.50;1.00
34572;DHT22;20808;48.974;8.452;2022-07-23T02:40:05;21.40;1.00
34572;DHT22;20808;48.974;8.452;2022-07-23T02:42:32;21.30;1.00
34572;DHT22;20808;48.974;8.452;2022-07-23T02:44:59;21.20;1.00
34572;DHT22;20808;48.974;8.452;2022-07-23T02:47:25;21.20;1.00
34572;DHT22;20808;48.974;8.452;2022-07-23T02:49:53;21.10;1.00
34572;DHT22;20808;48.974;8.452;2022-07-23T02:52:20;20.90;1.00
34572;DHT22;20808;48.974;8.452;2022-07-23T02:54:47;20.80;1.00
34572;DHT22;20808;48.974;8.452;2022-07-23T02:57:14;20.60;1.00
34572;DHT22;20808;48.974;8.452;2022-07-23T02:59:41;20.40;1.00
34572;DHT22;20808;48.974;8.452;2022-07-23T03:02:08;20.30;1.00
34572;DHT22;20808;48.974;8.452;2022-07-23T03:04:34;20.20;25.80
34572;DHT22;20808;48.974;8.452;2022-07-23T03:07:02;20.20;99.90
34572;DHT22;20808;48.974;8.452;2022-07-23T03:09:29;20.20;99.90
34572;DHT22;20808;48.974;8.452;2022-07-23T03:11:56;20.20;99.90
34572;DHT22;20808;48.974;8.452;2022-07-23T03:14:23;20.20;99.90
34572;DHT22;20808;48.974;8.452;2022-07-23T03:16:50;20.10;99.90
34572;DHT22;20808;48.974;8.452;2022-07-23T03:19:16;20.10;99.90
34572;DHT22;20808;48.974;8.452;2022-07-23T03:21:43;20.10;1.00
34572;DHT22;20808;48.974;8.452;2022-07-23T03:24:11;20.20;1.00
34572;DHT22;20808;48.974;8.452;2022-07-23T03:26:38;20.20;1.00
34572;DHT22;20808;48.974;8.452;2022-07-23T03:29:05;20.10;1.00
34572;DHT22;20808;48.974;8.452;2022-07-23T03:31:32;20.10;1.00
34572;DHT22;20808;48.974;8.452;2022-07-23T03:33:59;20.00;1.00
34572;DHT22;20808;48.974;8.452;2022-07-23T03:36:26;19.90;99.90
34572;DHT22;20808;48.974;8.452;2022-07-23T03:38:53;19.90;99.90
34572;DHT22;20808;48.974;8.452;2022-07-23T03:41:21;19.80;99.90
34572;DHT22;20808;48.974;8.452;2022-07-23T03:43:48;19.70;1.00
34572;DHT22;20808;48.974;8.452;2022-07-23T03:46:14;19.80;1.00
34572;DHT22;20808;48.974;8.452;2022-07-23T03:48:41;19.80;1.00
34572;DHT22;20808;48.974;8.452;2022-07-23T03:51:08;19.70;1.00
34572;DHT22;20808;48.974;8.452;2022-07-23T03:53:35;19.60;1.00
34572;DHT22;20808;48.974;8.452;2022-07-23T03:56:02;19.60;1.00
34572;DHT22;20808;48.974;8.452;2022-07-23T03:58:30;19.50;86.90
34572;DHT22;20808;48.974;8.452;2022-07-23T04:00:57;19.70;22.30
34572;DHT22;20808;48.974;8.452;2022-07-23T04:03:23;19.50;41.60
34572;DHT22;20808;48.974;8.452;2022-07-23T04:05:50;19.60;66.30
34572;DHT22;20808;48.974;8.452;2022-07-23T04:08:17;19.50;99.90
34572;DHT22;20808;48.974;8.452;2022-07-23T04:10:44;19.60;99.90
34572;DHT22;20808;48.974;8.452;2022-07-23T04:13:11;19.60;99.90
34572;DHT22;20808;48.974;8.452;2022-07-23T04:15:39;19.60;99.90
34572;DHT22;20808;48.974;8.452;2022-07-23T04:18:06;19.70;99.90
34572;DHT22;20808;48.974;8.452;2022-07-23T04:20:33;19.80;99.90
34572;DHT22;20808;48.974;8.452;2022-07-23T04:23:00;19.70;99.90
34572;DHT22;20808;48.974;8.452;2022-07-23T04:25:27;19.70;99.90
34572;DHT22;20808;48.974;8.452;2022-07-23T04:27:53;19.80;66.80
34572;DHT22;20808;48.974;8.452;2022-07-23T04:30:20;19.90;1.00
34572;DHT22;20808;48.974;8.452;2022-07-23T04:32:49;20.00;1.00
34572;DHT22;20808;48.974;8.452;2022-07-23T04:35:15;20.00;1.00
34572;DHT22;20808;48.974;8.452;2022-07-23T04:37:42;20.20;1.00
34572;DHT22;20808;48.974;8.452;2022-07-23T04:40:10;20.50;1.00
34572;DHT22;20808;48.974;8.452;2022-07-23T04:42:37;20.70;99.90
34572;DHT22;20808;48.974;8.452;2022-07-23T04:45:05;20.80;99.90
34572;DHT22;20808;48.974;8.452;2022-07-23T04:47:32;21.00;99.90
34572;DHT22;20808;48.974;8.452;2022-07-23T04:50:00;21.10;99.90
34572;DHT22;20808;48.974;8.452;2022-07-23T04:52:27;21.10;99.90
34572;DHT22;20808;48.974;8.452;2022-07-23T04:54:54;21.20;99.90
34572;DHT22;20808;48.974;8.452;2022-07-23T04:57:20;21.20;99.90
34572;DHT22;20808;48.974;8.452;2022-07-23T04:59:47;21.20;99.90
34572;DHT22;20808;48.974;8.452;2022-07-23T05:02:14;21.20;99.90
34572;DHT22;20808;48.974;8.452;2022-07-23T05:04:41;21.20;99.90
34572;DHT22;20808;48.974;8.452;2022-07-23T05:07:09;21.10;99.90
34572;DHT22;20808;48.974;8.452;2022-07-23T05:09:36;21.10;99.90
34572;DHT22;20808;48.974;8.452;2022-07-23T05:12:03;21.10;99.90
34572;DHT22;20808;48.974;8.452;2022-07-23T05:14:30;21.20;99.90
34572;DHT22;20808;48.974;8.452;2022-07-23T05:16:57;21.10;99.90
34572;DHT22;20808;48.974;8.452;2022-07-23T05:19:24;21.10;99.90
34572;DHT22;20808;48.974;8.452;2022-07-23T05:21:51;21.20;99.90
34572;DHT22;20808;48.974;8.452;2022-07-23T05:24:20;21.30;99.90
34572;DHT22;20808;48.974;8.452;2022-07-23T05:26:46;21.40;99.90
34572;DHT22;20808;48.974;8.452;2022-07-23T05:29:13;21.50;99.90
34572;DHT22;20808;48.974;8.452;2022-07-23T05:31:40;21.60;97.80
34572;DHT22;20808;48.974;8.452;2022-07-23T05:34:07;21.70;93.20
34572;DHT22;20808;48.974;8.452;2022-07-23T05:36:34;21.90;35.00
34572;DHT22;20808;48.974;8.452;2022-07-23T05:39:01;22.30;1.00
34572;DHT22;20808;48.974;8.452;2022-07-23T05:41:29;22.60;1.00
34572;DHT22;20808;48.974;8.452;2022-07-23T05:43:56;22.80;1.00
34572;DHT22;20808;48.974;8.452;2022-07-23T05:46:23;22.90;1.00
34572;DHT22;20808;48.974;8.452;2022-07-23T05:48:50;22.90;1.00
34572;DHT22;20808;48.974;8.452;2022-07-23T05:51:20;23.00;1.00
34572;DHT22;20808;48.974;8.452;2022-07-23T05:53:47;23.00;1.00
34572;DHT22;20808;48.974;8.452;2022-07-23T05:56:15;23.10;1.00
34572;DHT22;20808;48.974;8.452;2022-07-23T05:58:43;23.00;1.00
34572;DHT22;20808;48.974;8.452;2022-07-23T06:01:10;23.00;1.00
34572;DHT22;20808;48.974;8.452;2022-07-23T06:03:38;22.90;1.00
34572;DHT22;20808;48.974;8.452;2022-07-23T06:06:05;22.80;1.00
34572;DHT22;20808;48.974;8.452;2022-07-23T06:08:33;22.50;1.00
34572;DHT22;20808;48.974;8.452;2022-07-23T06:11:00;22.10;99.90
34572;DHT22;20808;48.974;8.452;2022-07-23T06:13:27;21.70;1.00
34572;DHT22;20808;48.974;8.452;2022-07-23T06:15:55;21.20;1.00
34572;DHT22;20808;48.974;8.452;2022-07-23T06:18:22;20.70;1.00
34572;DHT22;20808;48.974;8.452;2022-07-23T06:20:49;20.30;1.00
34572;DHT22;20808;48.974;8.452;2022-07-23T06:23:16;20.00;1.00
34572;DHT22;20808;48.974;8.452;2022-07-23T06:25:43;19.90;1.00
34572;DHT22;20808;48.974;8.452;2022-07-23T06:28:10;19.80;1.00
34572;DHT22;20808;48.974;8.452;2022-07-23T06:30:36;19.70;1.00
34572;DHT22;20808;48.974;8.452;2022-07-23T06:33:05;19.60;1.00
34572;DHT22;20808;48.974;8.452;2022-07-23T06:35:32;19.60;1.00
34572;DHT22;20808;48.974;8.452;2022-07-23T06:37:59;19.70;1.00
34572;DHT22;20808;48.974;8.452;2022-07-23T06:40:26;19.50;1.00
34572;DHT22;20808;48.974;8.452;2022-07-23T06:42:53;19.50;5.20
34572;DHT22;20808;48.974;8.452;2022-07-23T06:45:19;19.50;48.30
34572;DHT22;20808;48.974;8.452;2022-07-23T06:47:46;19.60;1.00
34572;DHT22;20808;48.974;8.452;2022-07-23T06:50:14;19.70;1.00
34572;DHT22;20808;48.974;8.452;2022-07-23T06:52:41;19.90;1.00
34572;DHT22;20808;48.974;8.452;2022-07-23T06:55:08;20.10;1.00
34572;DHT22;20808;48.974;8.452;2022-07-23T06:57:35;20.20;1.00
34572;DHT22;20808;48.974;8.452;2022-07-23T07:00:03;20.50;1.00
34572;DHT22;20808;48.974;8.452;2022-07-23T07:02:30;20.90;1.00
34572;DHT22;20808;48.974;8.452;2022-07-23T07:04:57;21.30;89.60
34572;DHT22;20808;48.974;8.452;2022-07-23T07:07:25;21.50;99.90
34572;DHT22;20808;48.974;8.452;2022-07-23T07:09:52;21.50;99.90
34572;DHT22;20808;48.974;8.452;2022-07-23T07:12:19;21.50;1.00
34572;DHT22;20808;48.974;8.452;2022-07-23T07:14:46;21.40;1.00
34572;DHT22;20808;48.974;8.452;2022-07-23T07:17:13;21.30;1.00
34572;DHT22;20808;48.974;8.452;2022-07-23T07:19:41;21.20;99.90
34572;DHT22;20808;48.974;8.452;2022-07-23T07:22:07;21.30;1.00
34572;DHT22;20808;48.974;8.452;2022-07-23T07:24:35;21.40;1.00
34572;DHT22;20808;48.974;8.452;2022-07-23T07:27:02;21.40;1.00
34572;DHT22;20808;48.974;8.452;2022-07-23T07:29:29;21.40;99.90
34572;DHT22;20808;48.974;8.452;2022-07-23T07:31:56;21.40;99.90
34572;DHT22;20808;48.974;8.452;2022-07-23T07:34:23;21.40;99.90
34572;DHT22;20808;48.974;8.452;2022-07-23T07:36:50;21.30;99.90
34572;DHT22;20808;48.974;8.452;2022-07-23T07:39:16;21.30;1.00
34572;DHT22;20808;48.974;8.452;2022-07-23T07:41:45;21.50;1.00
34572;DHT22;20808;48.974;8.452;2022-07-23T07:44:11;21.80;99.90
34572;DHT22;20808;48.974;8.452;2022-07-23T07:46:38;22.40;1.00
34572;DHT22;20808;48.974;8.452;2022-07-23T07:49:05;22.80;1.00
34572;DHT22;20808;48.974;8.452;2022-07-23T07:51:32;23.30;1.00
34572;DHT22;20808;48.974;8.452;2022-07-23T07:53:59;23.60;99.90
34572;DHT22;20808;48.974;8.452;2022-07-23T07:56:27;23.90;99.90
34572;DHT22;20808;48.974;8.452;2022-07-23T07:59:01;24.50;99.90
34572;DHT22;20808;48.974;8.452;2022-07-23T08:01:27;25.00;99.90
34572;DHT22;20808;48.974;8.452;2022-07-23T08:03:54;25.70;99.90
34572;DHT22;20808;48.974;8.452;2022-07-23T08:06:21;26.30;73.60
34572;DHT22;20808;48.974;8.452;2022-07-23T08:08:48;27.00;1.00
34572;DHT22;20808;48.974;8.452;2022-07-23T08:11:15;27.50;1.00
34572;DHT22;20808;48.974;8.452;2022-07-23T08:13:42;27.30;1.00
34572;DHT22;20808;48.974;8.452;2022-07-23T08:16:11;27.50;1.00
34572;DHT22;20808;48.974;8.452;2022-07-23T08:18:38;27.50;1.00
34572;DHT22;20808;48.974;8.452;2022-07-23T08:21:05;27.40;1.00
34572;DHT22;20808;48.974;8.452;2022-07-23T08:23:32;27.30;1.00
34572;DHT22;20808;48.974;8.452;2022-07-23T08:26:00;27.10;1.00
34572;DHT22;20808;48.974;8.452;2022-07-23T08:28:27;27.00;1.00
34572;DHT22;20808;48.974;8.452;2022-07-23T08:30:53;27.10;1.00
34572;DHT22;20808;48.974;8.452;2022-07-23T08:33:22;27.50;1.00
34572;DHT22;20808;48.974;8.452;2022-07-23T08:35:50;27.90;1.00
34572;DHT22;20808;48.974;8.452;2022-07-23T08:38:20;28.50;1.00
34572;DHT22;20808;48.974;8.452;2022-07-23T08:40:49;28.90;1.00
34572;DHT22;20808;48.974;8.452;2022-07-23T08:43:18;29.00;1.00
34572;DHT22;20808;48.974;8.452;2022-07-23T08:45:47;29.30;1.00
34572;DHT22;20808;48.974;8.452;2022-07-23T08:48:16;29.90;1.00
34572;DHT22;20808;48.974;8.452;2022-07-23T08:50:46;29.90;1.00
34572;DHT22;20808;48.974;8.452;2022-07-23T08:53:14;29.60;1.00
34572;DHT22;20808;48.974;8.452;2022-07-23T08:55:43;29.90;1.00
34572;DHT22;20808;48.974;8.452;2022-07-23T08:58:10;29.80;1.00
34572;DHT22;20808;48.974;8.452;2022-07-23T09:00:37;29.60;1.00
34572;DHT22;20808;48.974;8.452;2022-07-23T09:03:04;29.80;1.00
34572;DHT22;20808;48.974;8.452;2022-07-23T09:05:31;30.60;1.00
34572;DHT22;20808;48.974;8.452;2022-07-23T09:08:10;31.40;1.00
34572;DHT22;20808;48.974;8.452;2022-07-23T09:10:48;31.50;1.00
34572;DHT22;20808;48.974;8.452;2022-07-23T09:13:32;31.40;1.00
34572;DHT22;20808;48.974;8.452;2022-07-23T09:16:02;32.10;1.00
34572;DHT22;20808;48.974;8.452;2022-07-23T09:18:37;32.30;1.00
34572;DHT22;20808;48.974;8.452;2022-07-23T09:21:12;32.50;1.00
34572;DHT22;20808;48.974;8.452;2022-07-23T09:23:42;32.60;1.00
34572;DHT22;20808;48.974;8.452;2022-07-23T09:26:25;32.90;1.00
34572;DHT22;20808;48.974;8.452;2022-07-23T09:28:58;33.50;1.00
34572;DHT22;20808;48.974;8.452;2022-07-23T09:31:27;32.20;1.00
34572;DHT22;20808;48.974;8.452;2022-07-23T09:34:10;31.20;1.00
34572;DHT22;20808;48.974;8.452;2022-07-23T09:36:37;30.30;1.00
34572;DHT22;20808;48.974;8.452;2022-07-23T09:39:06;30.30;1.00
34572;DHT22;20808;48.974;8.452;2022-07-23T09:41:39;29.90;1.00
34572;DHT22;20808;48.974;8.452;2022-07-23T09:44:11;30.10;1.00
34572;DHT22;20808;48.974;8.452;2022-07-23T09:46:39;30.30;1.00
34572;DHT22;20808;48.974;8.452;2022-07-23T09:49:13;30.70;1.00
34572;DHT22;20808;48.974;8.452;2022-07-23T09:51:44;30.80;1.00
34572;DHT22;20808;48.974;8.452;2022-07-23T09:54:26;31.20;1.00
34572;DHT22;20808;48.974;8.452;2022-07-23T09:56:54;31.30;1.00
34572;DHT22;20808;48.974;8.452;2022-07-23T09:59:24;32.10;1.00
34572;DHT22;20808;48.974;8.452;2022-07-23T10:01:53;32.80;1.00
34572;DHT22;20808;48.974;8.452;2022-07-23T10:04:21;32.70;1.00
34572;DHT22;20808;48.974;8.452;2022-07-23T10:06:51;33.10;1.00
34572;DHT22;20808;48.974;8.452;2022-07-23T10:09:23;33.40;1.00
34572;DHT22;20808;48.974;8.452;2022-07-23T10:11:52;34.50;1.00
34572;DHT22;20808;48.974;8.452;2022-07-23T10:14:21;33.90;1.00
34572;DHT22;20808;48.974;8.452;2022-07-23T10:16:48;33.40;1.00
34572;DHT22;20808;48.974;8.452;2022-07-23T10:19:15;33.00;1.00
34572;DHT22;20808;48.974;8.452;2022-07-23T10:21:48;33.50;1.00
34572;DHT22;20808;48.974;8.452;2022-07-23T10:24:28;33.40;1.00
34572;DHT22;20808;48.974;8.452;2022-07-23T10:27:02;32.30;1.00
34572;DHT22;20808;48.974;8.452;2022-07-23T10:29:40;32.10;1.00
34572;DHT22;20808;48.974;8.452;2022-07-23T10:32:17;32.10;1.00
34572;DHT22;20808;48.974;8.452;2022-07-23T10:34:55;32.60;1.00
34572;DHT22;20808;48.974;8.452;2022-07-23T10:37:30;33.20;1.00
34572;DHT22;20808;48.974;8.452;2022-07-23T10:40:15;33.00;1.00
34572;DHT22;20808;48.974;8.452;2022-07-23T10:42:43;33.30;1.00
34572;DHT22;20808;48.974;8.452;2022-07-23T10:45:29;34.30;1.00
34572;DHT22;20808;48.974;8.452;2022-07-23T10:48:12;34.40;1.00
34572;DHT22;20808;48.974;8.452;2022-07-23T10:50:40;33.80;1.00
34572;DHT22;20808;48.974;8.452;2022-07-23T10:53:15;33.60;1.00
34572;DHT22;20808;48.974;8.452;2022-07-23T10:55:46;33.40;1.00
34572;DHT22;20808;48.974;8.452;2022-07-23T10:58:18;33.70;1.00
34572;DHT22;20808;48.974;8.452;2022-07-23T11:00:45;34.60;1.00
34572;DHT22;20808;48.974;8.452;2022-07-23T11:03:32;35.60;1.00
34572;DHT22;20808;48.974;8.452;2022-07-23T11:06:03;36.00;1.00
34572;DHT22;20808;48.974;8.452;2022-07-23T11:08:30;35.70;1.00
34572;DHT22;20808;48.974;8.452;2022-07-23T11:11:10;35.70;1.00
34572;DHT22;20808;48.974;8.452;2022-07-23T11:13:42;36.60;1.00
34572;DHT22;20808;48.974;8.452;2022-07-23T11:16:30;36.60;1.00
34572;DHT22;20808;48.974;8.452;2022-07-23T11:19:07;37.00;1.00
34572;DHT22;20808;48.974;8.452;2022-07-23T11:21:44;37.20;1.00
34572;DHT22;20808;48.974;8.452;2022-07-23T11:24:12;36.60;1.00
34572;DHT22;20808;48.974;8.452;2022-07-23T11:26:47;35.80;1.00
34572;DHT22;20808;48.974;8.452;2022-07-23T11:29:40;35.60;1.00
34572;DHT22;20808;48.974;8.452;2022-07-23T11:32:08;36.20;1.00
34572;DHT22;20808;48.974;8.452;2022-07-23T11:34:45;36.50;1.00
34572;DHT22;20808;48.974;8.452;2022-07-23T11:37:35;35.90;1.00
34572;DHT22;20808;48.974;8.452;2022-07-23T11:40:06;35.70;1.00
34572;DHT22;20808;48.974;8.452;2022-07-23T11:42:36;36.80;1.00
34572;DHT22;20808;48.974;8.452;2022-07-23T11:45:05;36.70;1.00
34572;DHT22;20808;48.974;8.452;2022-07-23T11:47:33;37.10;1.00
34572;DHT22;20808;48.974;8.452;2022-07-23T11:50:02;36.90;1.00
34572;DHT22;20808;48.974;8.452;2022-07-23T11:52:29;35.90;1.00
34572;DHT22;20808;48.974;8.452;2022-07-23T11:54:57;35.90;1.00
34572;DHT22;20808;48.974;8.452;2022-07-23T11:57:25;35.90;1.00
34572;DHT22;20808;48.974;8.452;2022-07-23T11:59:56;36.00;1.00
34572;DHT22;20808;48.974;8.452;2022-07-23T12:02:23;35.40;1.00
34572;DHT22;20808;48.974;8.452;2022-07-23T12:04:52;36.40;1.00
34572;DHT22;20808;48.974;8.452;2022-07-23T12:07:30;37.50;1.00
34572;DHT22;20808;48.974;8.452;2022-07-23T12:09:59;38.60;1.00
34572;DHT22;20808;48.974;8.452;2022-07-23T12:12:35;38.60;1.00
34572;DHT22;20808;48.974;8.452;2022-07-23T12:15:04;38.40;1.00
34572;DHT22;20808;48.974;8.452;2022-07-23T12:17:34;37.10;1.00
34572;DHT22;20808;48.974;8.452;2022-07-23T12:20:03;36.40;1.00
34572;DHT22;20808;48.974;8.452;2022-07-23T12:22:35;35.60;1.00
34572;DHT22;20808;48.974;8.452;2022-07-23T12:25:04;35.10;1.00
34572;DHT22;20808;48.974;8.452;2022-07-23T12:27:32;34.80;1.00
34572;DHT22;20808;48.974;8.452;2022-07-23T12:29:59;35.90;1.00
34572;DHT22;20808;48.974;8.452;2022-07-23T12:32:29;36.70;1.00
34572;DHT22;20808;48.974;8.452;2022-07-23T12:35:04;37.90;1.00
34572;DHT22;20808;48.974;8.452;2022-07-23T12:37:34;38.30;1.00
34572;DHT22;20808;48.974;8.452;2022-07-23T12:40:21;39.60;1.00
34572;DHT22;20808;48.974;8.452;2022-07-23T12:42:50;41.10;1.00
34572;DHT22;20808;48.974;8.452;2022-07-23T12:45:17;41.70;1.00
34572;DHT22;20808;48.974;8.452;2022-07-23T12:48:01;40.80;1.00
34572;DHT22;20808;48.974;8.452;2022-07-23T12:50:37;39.60;1.00
34572;DHT22;20808;48.974;8.452;2022-07-23T12:53:09;39.00;1.00
34572;DHT22;20808;48.974;8.452;2022-07-23T12:55:38;37.70;1.00
34572;DHT22;20808;48.974;8.452;2022-07-23T12:58:07;38.40;1.00
34572;DHT22;20808;48.974;8.452;2022-07-23T13:00:50;38.90;1.00
34572;DHT22;20808;48.974;8.452;2022-07-23T13:03:23;37.40;1.00
34572;DHT22;20808;48.974;8.452;2022-07-23T13:05:49;36.50;1.00
34572;DHT22;20808;48.974;8.452;2022-07-23T13:08:16;36.70;1.00
34572;DHT22;20808;48.974;8.452;2022-07-23T13:10:43;36.50;1.00
34572;DHT22;20808;48.974;8.452;2022-07-23T13:13:13;37.70;1.00
34572;DHT22;20808;48.974;8.452;2022-07-23T13:15:39;38.40;1.00
34572;DHT22;20808;48.974;8.452;2022-07-23T13:18:06;39.00;1.00
34572;DHT22;20808;48.974;8.452;2022-07-23T13:20:35;39.10;1.00
34572;DHT22;20808;48.974;8.452;2022-07-23T13:23:04;38.80;1.00
34572;DHT22;20808;48.974;8.452;2022-07-23T13:25:31;38.40;1.00
34572;DHT22;20808;48.974;8.452;2022-07-23T13:27:58;38.30;1.00
34572;DHT22;20808;48.974;8.452;2022-07-23T13:30:24;38.10;1.00
34572;DHT22;20808;48.974;8.452;2022-07-23T13:32:52;39.00;1.00
34572;DHT22;20808;48.974;8.452;2022-07-23T13:35:18;38.70;1.00
34572;DHT22;20808;48.974;8.452;2022-07-23T13:37:47;36.00;1.00
34572;DHT22;20808;48.974;8.452;2022-07-23T13:40:13;34.90;1.00
34572;DHT22;20808;48.974;8.452;2022-07-23T13:42:40;35.10;1.00
34572;DHT22;20808;48.974;8.452;2022-07-23T13:45:07;35.60;1.00
34572;DHT22;20808;48.974;8.452;2022-07-23T13:47:34;35.50;1.00
34572;DHT22;20808;48.974;8.452;2022-07-23T13:50:01;36.30;1.00
34572;DHT22;20808;48.974;8.452;2022-07-23T13:52:28;35.80;1.00
34572;DHT22;20808;48.974;8.452;2022-07-23T13:54:57;36.10;1.00
34572;DHT22;20808;48.974;8.452;2022-07-23T13:57:23;35.90;1.00
34572;DHT22;20808;48.974;8.452;2022-07-23T13:59:50;35.30;1.00
34572;DHT22;20808;48.974;8.452;2022-07-23T14:02:17;35.20;1.00
34572;DHT22;20808;48.974;8.452;2022-07-23T14:04:44;35.30;1.00
34572;DHT22;20808;48.974;8.452;2022-07-23T14:07:11;34.90;1.00
34572;DHT22;20808;48.974;8.452;2022-07-23T14:09:38;34.90;1.00
34572;DHT22;20808;48.974;8.452;2022-07-23T14:12:07;34.80;1.00
34572;DHT22;20808;48.974;8.452;2022-07-23T14:14:34;34.30;1.00
34572;DHT22;20808;48.974;8.452;2022-07-23T14:17:01;33.60;1.00
34572;DHT22;20808;48.974;8.452;2022-07-23T14:19:28;33.50;1.00
34572;DHT22;20808;48.974;8.452;2022-07-23T14:21:55;33.80;1.00
34572;DHT22;20808;48.974;8.452;2022-07-23T14:24:22;34.10;1.00
34572;DHT22;20808;48.974;8.452;2022-07-23T14:26:49;34.80;1.00
34572;DHT22;20808;48.974;8.452;2022-07-23T14:29:17;34.70;1.00
34572;DHT22;20808;48.974;8.452;2022-07-23T14:31:44;34.40;1.00
34572;DHT22;20808;48.974;8.452;2022-07-23T14:34:11;34.40;1.00
34572;DHT22;20808;48.974;8.452;2022-07-23T14:36:38;34.40;1.00
34572;DHT22;20808;48.974;8.452;2022-07-23T14:39:05;34.60;1.00
34572;DHT22;20808;48.974;8.452;2022-07-23T14:41:34;35.60;1.00
34572;DHT22;20808;48.974;8.452;2022-07-23T14:44:01;35.80;1.00
34572;DHT22;20808;48.974;8.452;2022-07-23T14:46:29;36.10;1.00
34572;DHT22;20808;48.974;8.452;2022-07-23T14:48:56;36.70;1.00
34572;DHT22;20808;48.974;8.452;2022-07-23T14:51:23;35.70;1.00
34572;DHT22;20808;48.974;8.452;2022-07-23T14:53:50;36.70;1.00
34572;DHT22;20808;48.974;8.452;2022-07-23T14:56:17;37.20;1.00
34572;DHT22;20808;48.974;8.452;2022-07-23T14:58:44;36.30;1.00
34572;DHT22;20808;48.974;8.452;2022-07-23T15:01:11;36.60;1.00
34572;DHT22;20808;48.974;8.452;2022-07-23T15:03:39;36.40;1.00
34572;DHT22;20808;48.974;8.452;2022-07-23T15:06:07;35.90;1.00
34572;DHT22;20808;48.974;8.452;2022-07-23T15:08:34;35.70;1.00
34572;DHT22;20808;48.974;8.452;2022-07-23T15:11:01;35.10;1.00
34572;DHT22;20808;48.974;8.452;2022-07-23T15:13:28;35.40;1.00
34572;DHT22;20808;48.974;8.452;2022-07-23T15:15:55;36.00;1.00
34572;DHT22;20808;48.974;8.452;2022-07-23T15:18:21;36.40;1.00
34572;DHT22;20808;48.974;8.452;2022-07-23T15:20:50;37.10;1.00
34572;DHT22;20808;48.974;8.452;2022-07-23T15:23:16;37.20;1.00
34572;DHT22;20808;48.974;8.452;2022-07-23T15:25:43;37.10;1.00
34572;DHT22;20808;48.974;8.452;2022-07-23T15:28:10;37.10;1.00
34572;DHT22;20808;48.974;8.452;2022-07-23T15:30:37;36.90;1.00
34572;DHT22;20808;48.974;8.452;2022-07-23T15:33:04;36.50;1.00
34572;DHT22;20808;48.974;8.452;2022-07-23T15:35:32;36.40;1.00
34572;DHT22;20808;48.974;8.452;2022-07-23T15:38:00;36.40;1.00
34572;DHT22;20808;48.974;8.452;2022-07-23T15:40:27;36.40;1.00
34572;DHT22;20808;48.974;8.452;2022-07-23T15:42:54;35.30;1.00
34572;DHT22;20808;48.974;8.452;2022-07-23T15:45:21;34.40;1.00
34572;DHT22;20808;48.974;8.452;2022-07-23T15:47:48;33.60;1.00
34572;DHT22;20808;48.974;8.452;2022-07-23T15:50:15;32.80;1.00